createdAt,value
2023-03-24T00:00:24.346Z,10.24
2023-03-24T00:02:51.848Z,10.25
2023-03-24T00:05:21.601Z,10.23
2023-03-24T00:07:54.691Z,10.20
2023-03-24T00:10:22.971Z,10.26
2023-03-24T00:12:50.778Z,10.26
2023-03-24T00:15:21.011Z,10.18
2023-03-24T00:17:50.658Z,10.17
2023-03-24T00:20:20.457Z,10.17
2023-03-24T00:22:51.035Z,10.12
2023-03-24T00:25:20.327Z,10.08
2023-03-24T00:27:48.820Z,10.12
2023-03-24T00:30:17.520Z,10.20
2023-03-24T00:32:46.445Z,10.22
2023-03-24T00:35:16.392Z,10.17
2023-03-24T00:37:44.663Z,9.97
2023-03-24T00:40:17.659Z,10.00
2023-03-24T00:42:46.408Z,9.99
2023-03-24T00:45:19.815Z,9.94
2023-03-24T00:47:49.966Z,9.98
2023-03-24T00:50:20.485Z,9.87
2023-03-24T00:52:49.066Z,9.82
2023-03-24T00:55:16.457Z,9.83
2023-03-24T00:57:52.352Z,9.80
2023-03-24T01:00:23.844Z,9.86
2023-03-24T01:02:56.119Z,9.83
2023-03-24T01:05:28.696Z,9.79
2023-03-24T01:08:03.929Z,9.84
2023-03-24T01:10:42.489Z,9.86
2023-03-24T01:13:10.460Z,9.76
2023-03-24T01:15:37.140Z,9.86
2023-03-24T01:18:04.092Z,9.82
2023-03-24T01:20:35.666Z,9.76
2023-03-24T01:23:05.207Z,9.69
2023-03-24T01:25:32.405Z,9.64
2023-03-24T01:27:59.323Z,9.69
2023-03-24T01:30:28.652Z,9.65
2023-03-24T01:32:56.339Z,9.65
2023-03-24T01:35:27.694Z,9.62
2023-03-24T01:37:56.205Z,9.68
2023-03-24T01:40:26.713Z,9.65
2023-03-24T01:42:53.451Z,9.65
2023-03-24T01:45:41.405Z,9.70
2023-03-24T01:48:22.529Z,9.68
2023-03-24T01:50:55.809Z,9.76
2023-03-24T01:53:23.544Z,9.74
2023-03-24T01:55:51.909Z,9.72
2023-03-24T01:58:19.174Z,9.71
2023-03-24T02:00:46.320Z,9.74
2023-03-24T02:03:19.303Z,9.75
2023-03-24T02:05:49.691Z,9.74
2023-03-24T02:08:28.643Z,9.71
2023-03-24T02:10:56.269Z,9.75
2023-03-24T02:13:23.713Z,9.76
2023-03-24T02:16:12.820Z,9.77
2023-03-24T02:19:16.839Z,9.75
2023-03-24T02:21:43.660Z,9.71
2023-03-24T02:24:36.707Z,9.73
2023-03-24T02:27:22.130Z,9.80
2023-03-24T02:30:15.350Z,9.83
2023-03-24T02:32:51.101Z,9.89
2023-03-24T02:35:39.955Z,9.90
2023-03-24T02:38:28.081Z,9.91
2023-03-24T02:41:19.406Z,9.95
2023-03-24T02:44:10.683Z,9.94
2023-03-24T02:47:03.432Z,9.97
2023-03-24T02:49:41.578Z,9.98
2023-03-24T02:52:14.605Z,9.99
2023-03-24T02:55:05.154Z,9.95
2023-03-24T02:57:42.860Z,9.95
2023-03-24T03:00:20.050Z,9.96
2023-03-24T03:03:16.459Z,10.00
2023-03-24T03:05:49.815Z,10.05
2023-03-24T03:08:21.144Z,10.09
2023-03-24T03:10:50.716Z,10.25
2023-03-24T03:13:29.878Z,10.36
2023-03-24T03:16:00.546Z,10.48
2023-03-24T03:18:33.693Z,10.58
2023-03-24T03:21:10.330Z,10.78
2023-03-24T03:23:42.050Z,10.82
2023-03-24T03:26:16.438Z,10.92
2023-03-24T03:28:50.095Z,10.97
2023-03-24T03:31:35.136Z,10.95
2023-03-24T03:34:08.465Z,10.97
2023-03-24T03:36:48.018Z,10.94
2023-03-24T03:39:25.656Z,10.89
2023-03-24T03:41:52.396Z,10.85
2023-03-24T03:44:19.186Z,10.82
2023-03-24T03:46:45.981Z,10.79
2023-03-24T03:49:12.797Z,10.78
2023-03-24T03:51:39.578Z,10.78
2023-03-24T03:54:11.147Z,10.75
2023-03-24T03:56:38.455Z,10.75
2023-03-24T03:59:06.923Z,10.71
2023-03-24T04:01:37.371Z,10.70
2023-03-24T04:04:07.178Z,10.70
2023-03-24T04:06:44.334Z,10.63
2023-03-24T04:10:19.199Z,10.66
2023-03-24T04:12:51.321Z,10.66
2023-03-24T04:15:29.982Z,10.69
2023-03-24T04:18:32.179Z,10.68
2023-03-24T04:21:17.144Z,10.67
2023-03-24T04:24:03.724Z,10.58
2023-03-24T04:26:43.526Z,10.59
2023-03-24T04:29:46.712Z,10.56
2023-03-24T04:32:21.957Z,10.53
2023-03-24T04:34:55.486Z,10.53
2023-03-24T04:37:26.664Z,10.49
2023-03-24T04:39:59.058Z,10.57
2023-03-24T04:42:38.525Z,10.59
2023-03-24T04:45:07.041Z,10.55
2023-03-24T04:47:43.143Z,10.47
2023-03-24T04:50:12.690Z,10.37
2023-03-24T04:52:42.851Z,10.32
2023-03-24T04:55:48.311Z,10.24
2023-03-24T04:58:18.812Z,10.25
2023-03-24T05:00:45.916Z,10.31
2023-03-24T05:03:14.675Z,10.39
2023-03-24T05:05:43.166Z,10.35
2023-03-24T05:08:11.125Z,10.42
2023-03-24T05:10:38.981Z,10.50
2023-03-24T05:13:07.058Z,10.58
2023-03-24T05:15:34.608Z,10.58
2023-03-24T05:18:01.503Z,10.53
2023-03-24T05:20:28.591Z,10.55
2023-03-24T05:22:55.292Z,10.56
2023-03-24T05:25:22.174Z,10.56
2023-03-24T05:27:49.335Z,10.53
2023-03-24T05:30:16.932Z,10.63
2023-03-24T05:32:45.481Z,10.58
2023-03-24T05:35:14.032Z,10.63
2023-03-24T05:37:40.772Z,10.69
2023-03-24T05:40:08.501Z,10.71
2023-03-24T05:42:35.408Z,10.71
2023-03-24T05:45:02.447Z,10.74
2023-03-24T05:47:29.111Z,10.76
2023-03-24T05:49:55.817Z,10.77
2023-03-24T05:52:22.771Z,10.75
2023-03-24T05:54:52.129Z,10.76
2023-03-24T05:57:20.664Z,10.70
2023-03-24T05:59:47.774Z,10.72
2023-03-24T06:02:14.682Z,10.69
2023-03-24T06:04:46.333Z,10.71
2023-03-24T06:07:14.267Z,10.63
2023-03-24T06:09:46.958Z,10.52
2023-03-24T06:12:14.281Z,10.52
2023-03-24T06:14:40.939Z,10.50
2023-03-24T06:17:08.489Z,10.59
2023-03-24T06:19:38.664Z,10.64
2023-03-24T06:22:06.288Z,10.69
2023-03-24T06:24:34.355Z,10.75
2023-03-24T06:27:02.429Z,10.82
2023-03-24T06:29:30.745Z,10.88
2023-03-24T06:31:57.425Z,10.92
2023-03-24T06:34:25.186Z,10.92
2023-03-24T06:36:52.634Z,11.03
2023-03-24T06:39:19.397Z,11.10
2023-03-24T06:41:46.166Z,11.20
2023-03-24T06:44:13.068Z,11.25
2023-03-24T06:46:40.584Z,11.26
2023-03-24T06:49:08.051Z,11.33
2023-03-24T06:51:34.707Z,11.25
2023-03-24T06:54:01.413Z,11.31
2023-03-24T06:56:28.431Z,11.33
2023-03-24T06:58:55.189Z,11.33
2023-03-24T07:01:22.346Z,11.20
2023-03-24T07:03:49.605Z,11.15
2023-03-24T07:06:16.783Z,11.12
2023-03-24T07:08:44.612Z,11.16
2023-03-24T07:11:12.017Z,11.15
2023-03-24T07:13:38.714Z,11.32
2023-03-24T07:16:05.840Z,11.26
2023-03-24T07:18:32.635Z,11.23
2023-03-24T07:20:59.593Z,11.25
2023-03-24T07:23:27.607Z,11.42
2023-03-24T07:25:54.625Z,11.33
2023-03-24T07:28:21.847Z,11.40
2023-03-24T07:30:48.576Z,11.30
2023-03-24T07:33:15.290Z,11.35
2023-03-24T07:35:43.041Z,11.43
2023-03-24T07:38:10.650Z,11.40
2023-03-24T07:40:37.800Z,11.46
2023-03-24T07:43:05.883Z,11.30
2023-03-24T07:45:33.808Z,11.30
2023-03-24T07:48:03.485Z,11.36
2023-03-24T07:50:31.890Z,11.30
2023-03-24T07:53:00.217Z,11.22
2023-03-24T07:55:27.503Z,11.23
2023-03-24T07:57:54.375Z,11.09
2023-03-24T08:00:21.696Z,11.03
2023-03-24T08:02:52.206Z,10.91
2023-03-24T08:05:20.803Z,10.94
2023-03-24T08:07:55.897Z,10.99
2023-03-24T08:10:26.027Z,11.01
2023-03-24T08:12:53.155Z,11.02
2023-03-24T08:15:20.338Z,10.94
2023-03-24T08:17:49.236Z,10.81
2023-03-24T08:20:16.556Z,10.87
2023-03-24T08:22:45.030Z,10.94
2023-03-24T08:25:13.025Z,10.89
2023-03-24T08:27:40.739Z,10.85
2023-03-24T08:30:10.608Z,10.76
2023-03-24T08:32:37.914Z,10.57
2023-03-24T08:35:05.373Z,10.67
2023-03-24T08:37:32.150Z,10.59
2023-03-24T08:40:05.472Z,10.62
2023-03-24T08:42:32.265Z,10.43
2023-03-24T08:44:58.893Z,10.34
2023-03-24T08:47:26.097Z,10.49
2023-03-24T08:49:57.621Z,10.54
2023-03-24T08:52:25.085Z,10.44
2023-03-24T08:54:52.635Z,10.35
2023-03-24T08:57:19.412Z,10.42
2023-03-24T08:59:47.090Z,10.46
2023-03-24T09:02:14.752Z,10.54
2023-03-24T09:04:42.886Z,10.43
2023-03-24T09:07:10.434Z,10.47
2023-03-24T09:09:37.115Z,10.61
2023-03-24T09:12:03.760Z,10.75
2023-03-24T09:14:30.686Z,10.64
2023-03-24T09:16:57.352Z,10.72
2023-03-24T09:19:24.009Z,10.82
2023-03-24T09:21:50.689Z,10.89
2023-03-24T09:24:17.594Z,10.89
2023-03-24T09:26:44.395Z,11.14
2023-03-24T09:29:11.062Z,11.46
2023-03-24T09:31:37.765Z,11.91
2023-03-24T09:34:04.530Z,12.10
2023-03-24T09:36:32.911Z,11.82
2023-03-24T09:38:59.528Z,11.99
2023-03-24T09:41:29.246Z,12.05
2023-03-24T09:44:23.046Z,11.99
2023-03-24T09:46:54.715Z,11.93
2023-03-24T09:49:28.905Z,12.14
2023-03-24T09:52:25.053Z,11.84
2023-03-24T09:54:55.713Z,11.86
2023-03-24T09:57:28.653Z,11.75
2023-03-24T09:59:56.077Z,11.59
2023-03-24T10:02:23.505Z,11.60
2023-03-24T10:04:50.692Z,11.57
2023-03-24T10:07:47.180Z,11.54
2023-03-24T10:10:40.750Z,11.85
2023-03-24T10:13:13.801Z,11.70
2023-03-24T10:15:55.601Z,11.78
2023-03-24T10:19:00.561Z,11.55
2023-03-24T10:21:28.111Z,11.66
2023-03-24T10:24:13.870Z,11.51
2023-03-24T10:26:55.423Z,11.54
2023-03-24T10:29:22.613Z,11.38
2023-03-24T10:31:59.114Z,11.43
2023-03-24T10:34:30.879Z,11.28
2023-03-24T10:36:59.535Z,11.27
2023-03-24T10:39:37.836Z,11.14
2023-03-24T10:42:18.381Z,11.18
2023-03-24T10:44:48.339Z,11.08
2023-03-24T10:47:18.523Z,11.03
2023-03-24T10:49:58.053Z,11.14
2023-03-24T10:52:25.071Z,11.14
2023-03-24T10:55:03.526Z,11.15
2023-03-24T10:57:30.777Z,11.13
2023-03-24T10:59:59.806Z,10.87
2023-03-24T11:02:31.606Z,10.87
2023-03-24T11:05:14.188Z,10.78
2023-03-24T11:07:47.251Z,10.56
2023-03-24T11:10:17.301Z,10.35
2023-03-24T11:13:02.294Z,10.27
2023-03-24T11:15:30.748Z,10.27
2023-03-24T11:18:08.830Z,10.45
2023-03-24T11:20:38.536Z,10.53
2023-03-24T11:23:11.127Z,10.46
2023-03-24T11:25:41.701Z,10.56
2023-03-24T11:28:15.475Z,10.85
2023-03-24T11:30:48.064Z,10.85
2023-03-24T11:33:34.595Z,11.02
2023-03-24T11:36:26.176Z,11.20
2023-03-24T11:39:06.402Z,11.46
2023-03-24T11:41:34.773Z,11.40
2023-03-24T11:44:24.294Z,11.43
2023-03-24T11:46:58.836Z,11.43
2023-03-24T11:49:41.983Z,11.40
2023-03-24T11:52:19.943Z,11.02
2023-03-24T11:54:46.599Z,10.91
2023-03-24T11:57:17.609Z,11.05
2023-03-24T11:59:58.271Z,10.89
2023-03-24T12:02:42.196Z,10.74
2023-03-24T12:05:19.593Z,10.75
2023-03-24T12:08:08.028Z,10.70
2023-03-24T12:11:30.886Z,10.46
2023-03-24T12:14:00.797Z,10.34
2023-03-24T12:16:33.195Z,10.35
2023-03-24T12:19:31.904Z,10.30
2023-03-24T12:22:26.912Z,10.29
2023-03-24T12:25:08.849Z,10.31
2023-03-24T12:28:10.590Z,10.41
2023-03-24T12:30:55.692Z,10.78
2023-03-24T12:33:25.195Z,10.64
2023-03-24T12:35:52.217Z,10.92
2023-03-24T12:38:59.191Z,10.73
2023-03-24T12:41:44.208Z,10.92
2023-03-24T12:44:29.644Z,10.73
2023-03-24T12:47:08.633Z,10.76
2023-03-24T12:49:51.161Z,11.07
2023-03-24T12:52:17.941Z,11.03
2023-03-24T12:54:47.555Z,11.15
2023-03-24T12:57:18.338Z,11.10
2023-03-24T12:59:53.068Z,11.28
2023-03-24T13:02:37.665Z,11.22
2023-03-24T13:05:16.655Z,11.22
2023-03-24T13:07:48.412Z,11.21
2023-03-24T13:10:29.734Z,11.32
2023-03-24T13:13:03.988Z,11.40
2023-03-24T13:15:41.624Z,11.84
2023-03-24T13:18:11.384Z,11.45
2023-03-24T13:20:41.173Z,11.22
2023-03-24T13:23:33.571Z,11.12
2023-03-24T13:26:25.979Z,11.02
2023-03-24T13:28:52.544Z,10.57
2023-03-24T13:31:22.879Z,10.59
2023-03-24T13:33:51.433Z,10.54
2023-03-24T13:36:27.614Z,10.47
2023-03-24T13:38:58.523Z,10.26
2023-03-24T13:41:27.265Z,10.14
2023-03-24T13:44:00.622Z,10.02
2023-03-24T13:46:28.757Z,10.16
2023-03-24T13:48:57.925Z,9.96
2023-03-24T13:51:26.644Z,10.03
2023-03-24T13:54:02.525Z,10.14
2023-03-24T13:56:39.112Z,9.99
2023-03-24T13:59:28.956Z,9.99
2023-03-24T14:02:17.499Z,10.02
2023-03-24T14:05:06.461Z,9.90
2023-03-24T14:07:39.100Z,10.04
2023-03-24T14:10:14.835Z,9.80
2023-03-24T14:12:57.670Z,9.64
2023-03-24T14:15:49.372Z,9.64
2023-03-24T14:18:25.886Z,9.66
2023-03-24T14:21:02.022Z,9.93
2023-03-24T14:23:40.170Z,9.88
2023-03-24T14:26:14.217Z,9.89
2023-03-24T14:28:43.178Z,9.68
2023-03-24T14:31:16.022Z,9.74
2023-03-24T14:33:52.998Z,9.62
2023-03-24T14:36:26.914Z,9.30
2023-03-24T14:38:53.666Z,9.42
2023-03-24T14:41:31.186Z,9.57
2023-03-24T14:43:59.591Z,9.43
2023-03-24T14:47:01.424Z,9.65
2023-03-24T14:49:30.938Z,9.37
2023-03-24T14:52:13.475Z,9.24
2023-03-24T14:54:46.130Z,9.16
2023-03-24T14:57:20.707Z,9.09
2023-03-24T14:59:55.497Z,9.20
2023-03-24T15:02:44.088Z,9.17
2023-03-24T15:05:21.983Z,9.27
2023-03-24T15:08:01.470Z,9.32
2023-03-24T15:10:36.204Z,9.32
2023-03-24T15:13:03.425Z,9.27
2023-03-24T15:15:30.649Z,9.04
2023-03-24T15:17:57.444Z,8.95
2023-03-24T15:20:35.159Z,8.92
2023-03-24T15:23:16.666Z,8.86
2023-03-24T15:25:43.327Z,8.91
2023-03-24T15:28:30.765Z,9.07
2023-03-24T15:31:01.568Z,8.97
2023-03-24T15:33:31.177Z,8.85
2023-03-24T15:35:59.888Z,8.99
2023-03-24T15:38:31.748Z,9.06
2023-03-24T15:41:04.222Z,8.94
2023-03-24T15:43:31.160Z,8.99
2023-03-24T15:46:11.874Z,9.02
2023-03-24T15:48:39.845Z,8.82
2023-03-24T15:51:11.400Z,8.74
2023-03-24T15:53:58.018Z,8.89
2023-03-24T15:56:24.647Z,8.78
2023-03-24T15:58:57.465Z,8.78
2023-03-24T16:01:36.289Z,8.86
2023-03-24T16:04:07.993Z,8.98
2023-03-24T16:06:36.684Z,9.05
2023-03-24T16:09:13.644Z,9.11
2023-03-24T16:11:41.810Z,9.45
2023-03-24T16:14:28.558Z,9.37
2023-03-24T16:17:00.801Z,9.25
2023-03-24T16:19:27.877Z,9.09
2023-03-24T16:21:55.250Z,9.10
2023-03-24T16:24:22.525Z,9.10
2023-03-24T16:26:50.054Z,9.18
2023-03-24T16:29:19.633Z,8.94
2023-03-24T16:31:51.281Z,8.89
2023-03-24T16:34:20.130Z,8.85
2023-03-24T16:36:54.357Z,8.76
2023-03-24T16:39:23.864Z,8.83
2023-03-24T16:41:51.006Z,8.88
2023-03-24T16:44:17.730Z,8.89
2023-03-24T16:46:46.701Z,8.86
2023-03-24T16:49:18.940Z,8.77
2023-03-24T16:51:46.658Z,8.90
2023-03-24T16:54:13.399Z,8.86
2023-03-24T16:56:40.620Z,8.91
2023-03-24T16:59:07.330Z,8.83
2023-03-24T17:01:39.676Z,8.79
2023-03-24T17:04:13.851Z,8.63
2023-03-24T17:06:43.579Z,8.60
2023-03-24T17:09:11.049Z,8.54
2023-03-24T17:11:40.838Z,8.57
2023-03-24T17:14:12.372Z,8.56
2023-03-24T17:16:45.202Z,8.52
2023-03-24T17:19:13.968Z,8.51
2023-03-24T17:21:49.279Z,8.34
2023-03-24T17:24:16.226Z,8.25
2023-03-24T17:26:42.919Z,8.25
2023-03-24T17:29:14.020Z,8.35
2023-03-24T17:31:43.180Z,8.39
2023-03-24T17:36:44.004Z,8.42
2023-03-24T17:39:16.118Z,8.26
2023-03-24T17:41:42.796Z,8.24
2023-03-24T17:44:09.486Z,8.35
2023-03-24T17:46:36.170Z,8.33
2023-03-24T17:49:03.049Z,8.21
2023-03-24T17:51:29.852Z,8.14
2023-03-24T17:53:56.494Z,8.03
2023-03-24T17:56:23.170Z,8.01
2023-03-24T17:58:50.026Z,8.05
2023-03-24T18:01:18.373Z,7.97
2023-03-24T18:03:45.246Z,7.92
2023-03-24T18:06:13.598Z,7.99
2023-03-24T18:08:40.459Z,7.92
2023-03-24T18:11:09.654Z,7.73
2023-03-24T18:13:36.942Z,7.74
2023-03-24T18:16:20.034Z,7.69
2023-03-24T18:18:49.075Z,7.71
2023-03-24T18:21:16.063Z,7.71
2023-03-24T18:23:42.792Z,7.64
2023-03-24T18:26:09.505Z,7.58
2023-03-24T18:28:38.646Z,7.60
2023-03-24T18:31:10.249Z,7.47
2023-03-24T18:33:37.007Z,7.43
2023-03-24T18:36:05.594Z,7.33
2023-03-24T18:38:32.496Z,7.36
2023-03-24T18:41:06.542Z,7.38
2023-03-24T18:43:37.470Z,7.25
2023-03-24T18:46:05.763Z,7.15
2023-03-24T18:48:32.531Z,7.06
2023-03-24T18:50:59.222Z,7.07
2023-03-24T18:53:25.983Z,7.02
2023-03-24T18:55:52.769Z,6.92
2023-03-24T18:58:19.434Z,6.80
2023-03-24T19:00:51.671Z,6.74
2023-03-24T19:03:19.681Z,6.72
2023-03-24T19:05:46.962Z,6.70
2023-03-24T19:08:14.883Z,6.57
2023-03-24T19:10:43.207Z,6.54
2023-03-24T19:13:12.601Z,6.47
2023-03-24T19:15:40.245Z,6.46
2023-03-24T19:18:07.566Z,6.37
2023-03-24T19:20:35.214Z,6.23
2023-03-24T19:23:01.962Z,6.25
2023-03-24T19:25:28.632Z,6.19
2023-03-24T19:27:55.406Z,6.15
2023-03-24T19:30:22.077Z,5.98
2023-03-24T19:32:48.808Z,5.89
2023-03-24T19:35:16.110Z,5.81
2023-03-24T19:37:42.862Z,5.88
2023-03-24T19:40:11.873Z,5.88
2023-03-24T19:42:41.688Z,5.83
2023-03-24T19:45:13.723Z,5.75
2023-03-24T19:47:40.447Z,5.74
2023-03-24T19:50:08.477Z,5.70
2023-03-24T19:52:35.775Z,5.65
2023-03-24T19:55:03.121Z,5.68
2023-03-24T19:57:31.752Z,5.66
2023-03-24T19:59:59.200Z,5.49
2023-03-24T20:02:26.076Z,5.47
2023-03-24T20:04:55.138Z,5.32
2023-03-24T20:07:23.085Z,5.32
2023-03-24T20:09:50.351Z,5.25
2023-03-24T20:12:17.186Z,5.18
2023-03-24T20:14:44.206Z,5.13
2023-03-24T20:17:20.104Z,5.09
2023-03-24T20:19:47.660Z,5.11
2023-03-24T20:22:15.494Z,5.06
2023-03-24T20:24:44.284Z,5.01
2023-03-24T20:27:11.266Z,4.96
2023-03-24T20:29:39.557Z,4.76
2023-03-24T20:32:08.126Z,4.76
2023-03-24T20:34:34.843Z,4.75
2023-03-24T20:37:01.538Z,4.76
2023-03-24T20:39:28.241Z,4.69
2023-03-24T20:41:54.949Z,4.55
2023-03-24T20:44:21.622Z,4.49
2023-03-24T20:46:48.460Z,4.62
2023-03-24T20:49:16.742Z,4.92
2023-03-24T20:51:44.992Z,5.15
2023-03-24T20:54:11.896Z,5.38
2023-03-24T20:56:38.614Z,5.60
2023-03-24T20:59:08.043Z,5.78
2023-03-24T21:01:42.032Z,5.89
2023-03-24T21:04:09.641Z,6.00
2023-03-24T21:06:40.156Z,6.04
2023-03-24T21:09:07.154Z,6.03
2023-03-24T21:11:34.686Z,6.00
2023-03-24T21:14:02.720Z,5.98
2023-03-24T21:16:33.689Z,5.97
2023-03-24T21:19:03.815Z,6.04
2023-03-24T21:21:31.871Z,6.06
2023-03-24T21:23:58.682Z,5.99
2023-03-24T21:26:25.476Z,5.90
2023-03-24T21:28:53.010Z,5.85
2023-03-24T21:31:25.233Z,5.87
2023-03-24T21:33:52.672Z,5.85
2023-03-24T21:36:20.729Z,5.92
2023-03-24T21:38:51.717Z,6.04
2023-03-24T21:41:19.709Z,6.05
2023-03-24T21:43:50.943Z,6.00
2023-03-24T21:46:21.970Z,5.93
2023-03-24T21:48:55.474Z,5.85
2023-03-24T21:51:25.288Z,5.84
2023-03-24T21:53:56.768Z,5.83
2023-03-24T21:56:23.599Z,5.77
2023-03-24T21:58:53.686Z,5.83
2023-03-24T22:01:20.471Z,5.86
2023-03-24T22:03:47.238Z,5.80
2023-03-24T22:06:14.303Z,5.80
2023-03-24T22:08:43.532Z,5.91
2023-03-24T22:11:11.462Z,6.03
2023-03-24T22:13:39.367Z,6.22
2023-03-24T22:16:07.211Z,6.31
2023-03-24T22:18:34.583Z,6.34
2023-03-24T22:21:07.674Z,6.32
2023-03-24T22:23:37.941Z,6.34
2023-03-24T22:26:10.981Z,6.41
2023-03-24T22:28:38.420Z,6.50
2023-03-24T22:31:09.102Z,6.50
2023-03-24T22:33:36.326Z,6.48
2023-03-24T22:36:04.704Z,6.42
2023-03-24T22:38:32.111Z,6.44
2023-03-24T22:41:01.179Z,6.40
2023-03-24T22:43:29.254Z,6.39
2023-03-24T22:45:56.151Z,6.38
2023-03-24T22:48:23.693Z,6.47
2023-03-24T22:50:51.034Z,6.55
2023-03-24T22:53:18.008Z,6.50
2023-03-24T22:55:45.119Z,6.45
2023-03-24T22:58:13.405Z,6.39
2023-03-24T23:00:41.734Z,6.35
2023-03-24T23:03:09.612Z,6.31
2023-03-24T23:05:41.097Z,6.19
2023-03-24T23:08:09.191Z,6.14
2023-03-24T23:10:36.795Z,6.01
2023-03-24T23:13:04.142Z,5.93
2023-03-24T23:15:31.923Z,5.83
2023-03-24T23:17:59.384Z,5.81
2023-03-24T23:20:28.099Z,5.84
2023-03-24T23:22:54.938Z,5.80
2023-03-24T23:25:21.723Z,5.83
2023-03-24T23:27:48.553Z,5.70
2023-03-24T23:30:17.164Z,5.69
2023-03-24T23:32:44.184Z,5.56
2023-03-24T23:35:11.498Z,5.54
2023-03-24T23:37:39.551Z,5.56
2023-03-24T23:40:12.687Z,5.64
2023-03-24T23:42:42.022Z,5.64
2023-03-24T23:45:10.952Z,5.58
2023-03-24T23:47:37.796Z,5.57
2023-03-24T23:50:06.285Z,5.61
2023-03-24T23:52:33.386Z,5.65
2023-03-24T23:55:02.235Z,5.71
2023-03-24T23:57:29.404Z,5.73
2023-03-24T23:59:56.073Z,5.73
